createdAt,value
2018-06-09T00:00:15.823Z,23.70
2018-06-09T00:02:43.219Z,23.70
2018-06-09T00:05:10.838Z,23.60
2018-06-09T00:07:38.208Z,23.60
2018-06-09T00:10:05.707Z,23.50
2018-06-09T00:12:33.084Z,23.50
2018-06-09T00:15:00.397Z,23.50
2018-06-09T00:17:27.720Z,23.40
2018-06-09T00:19:55.061Z,23.40
2018-06-09T00:24:49.563Z,23.30
2018-06-09T00:27:16.883Z,23.30
2018-06-09T00:29:44.238Z,23.30
2018-06-09T00:32:11.548Z,23.20
2018-06-09T00:34:38.873Z,23.00
2018-06-09T00:37:06.182Z,22.90
2018-06-09T00:39:33.492Z,23.00
2018-06-09T00:42:00.835Z,23.00
2018-06-09T00:44:28.147Z,23.00
2018-06-09T00:46:55.463Z,23.10
2018-06-09T00:49:22.792Z,23.00
2018-06-09T00:51:50.135Z,23.00
2018-06-09T00:54:17.493Z,23.00
2018-06-09T00:56:45.421Z,22.90
2018-06-09T00:59:12.726Z,22.80
2018-06-09T01:01:40.094Z,22.80
2018-06-09T01:04:07.422Z,22.70
2018-06-09T01:06:34.808Z,22.50
2018-06-09T01:09:02.140Z,22.40
2018-06-09T01:11:29.448Z,22.40
2018-06-09T01:13:56.777Z,22.30
2018-06-09T01:16:24.097Z,22.40
2018-06-09T01:18:51.427Z,22.40
2018-06-09T01:21:18.778Z,22.40
2018-06-09T01:23:46.081Z,22.60
2018-06-09T01:26:13.411Z,22.70
2018-06-09T01:28:40.761Z,22.80
2018-06-09T01:31:08.085Z,22.80
2018-06-09T01:33:35.459Z,22.90
2018-06-09T01:36:02.766Z,22.90
2018-06-09T01:40:57.326Z,22.60
2018-06-09T01:43:24.632Z,22.40
2018-06-09T01:45:51.966Z,22.40
2018-06-09T01:48:19.296Z,22.40
2018-06-09T01:50:46.616Z,22.50
2018-06-09T01:53:13.962Z,22.60
2018-06-09T01:55:41.286Z,22.70
2018-06-09T01:58:08.623Z,22.80
2018-06-09T02:00:35.973Z,22.90
2018-06-09T02:03:03.298Z,22.90
2018-06-09T02:05:30.635Z,23.00
2018-06-09T02:07:57.931Z,22.90
2018-06-09T02:10:25.271Z,23.00
2018-06-09T02:12:52.575Z,23.00
2018-06-09T02:15:20.157Z,23.00
2018-06-09T02:20:14.672Z,22.70
2018-06-09T02:22:41.964Z,22.60
2018-06-09T02:25:09.302Z,22.50
2018-06-09T02:27:36.608Z,22.40
2018-06-09T02:30:03.937Z,22.20
2018-06-09T02:32:31.236Z,22.10
2018-06-09T02:34:58.606Z,22.00
2018-06-09T02:37:25.936Z,21.80
2018-06-09T02:39:53.252Z,21.60
2018-06-09T02:42:20.583Z,21.60
2018-06-09T02:44:47.903Z,21.40
2018-06-09T02:47:15.228Z,21.40
2018-06-09T02:49:42.618Z,21.40
2018-06-09T02:52:09.925Z,21.40
2018-06-09T02:54:37.281Z,21.50
2018-06-09T02:57:04.631Z,21.40
2018-06-09T02:59:31.982Z,21.50
2018-06-09T03:01:59.322Z,21.60
2018-06-09T03:04:26.680Z,21.60
2018-06-09T03:06:54.030Z,21.70
2018-06-09T03:09:21.435Z,21.80
2018-06-09T03:11:48.758Z,21.70
2018-06-09T03:14:16.082Z,21.60
2018-06-09T03:16:43.543Z,21.60
2018-06-09T03:19:10.901Z,21.70
2018-06-09T03:21:38.239Z,22.00
2018-06-09T03:24:05.560Z,22.10
2018-06-09T03:26:32.914Z,22.10
2018-06-09T03:29:00.230Z,22.20
2018-06-09T03:31:27.592Z,22.20
2018-06-09T03:33:54.953Z,22.30
2018-06-09T03:36:22.254Z,22.30
2018-06-09T03:38:49.635Z,22.40
2018-06-09T03:41:16.962Z,22.50
2018-06-09T03:43:44.347Z,22.50
2018-06-09T03:46:11.655Z,22.40
2018-06-09T03:48:38.989Z,22.40
2018-06-09T03:51:06.367Z,22.40
2018-06-09T03:53:33.803Z,22.40
2018-06-09T03:56:01.149Z,22.50
2018-06-09T03:58:28.483Z,22.50
2018-06-09T04:00:55.846Z,22.60
2018-06-09T04:03:23.192Z,22.50
2018-06-09T04:05:50.545Z,22.40
2018-06-09T04:08:17.859Z,22.10
2018-06-09T04:10:45.199Z,22.10
2018-06-09T04:13:12.509Z,22.00
2018-06-09T04:15:39.857Z,21.70
2018-06-09T04:18:07.187Z,21.70
2018-06-09T04:20:34.596Z,21.70
2018-06-09T04:23:01.890Z,21.60
2018-06-09T04:25:29.244Z,21.60
2018-06-09T04:27:56.600Z,21.70
2018-06-09T04:30:23.902Z,21.80
2018-06-09T04:32:51.240Z,22.00
2018-06-09T04:35:18.583Z,22.00
2018-06-09T04:37:45.911Z,21.80
2018-06-09T04:40:13.267Z,21.90
2018-06-09T04:42:40.595Z,22.00
2018-06-09T04:45:07.895Z,22.10
2018-06-09T04:47:35.207Z,22.20
2018-06-09T04:50:02.493Z,22.40
2018-06-09T04:52:29.837Z,22.60
2018-06-09T04:54:57.151Z,22.70
2018-06-09T04:57:24.507Z,22.80
2018-06-09T04:59:51.961Z,22.70
2018-06-09T05:02:19.577Z,22.70
2018-06-09T05:04:46.903Z,22.70
2018-06-09T05:07:14.236Z,22.50
2018-06-09T05:09:41.667Z,22.60
2018-06-09T05:12:09.027Z,22.70
2018-06-09T05:14:36.354Z,22.80
2018-06-09T05:17:03.722Z,22.70
2018-06-09T05:19:31.031Z,22.50
2018-06-09T05:21:58.340Z,22.40
2018-06-09T05:24:25.638Z,22.30
2018-06-09T05:26:52.937Z,22.30
2018-06-09T05:29:20.244Z,22.40
2018-06-09T05:31:47.573Z,22.40
2018-06-09T05:34:14.905Z,22.40
2018-06-09T05:36:42.248Z,22.30
2018-06-09T05:39:09.547Z,22.40
2018-06-09T05:41:36.882Z,22.60
2018-06-09T05:46:31.373Z,23.10
2018-06-09T05:48:58.708Z,23.20
2018-06-09T05:51:26.017Z,23.20
2018-06-09T05:53:53.332Z,23.50
2018-06-09T05:56:20.667Z,23.80
2018-06-09T05:58:48.048Z,23.90
2018-06-09T06:01:15.375Z,23.90
2018-06-09T06:03:42.684Z,23.80
2018-06-09T06:06:09.960Z,24.00
2018-06-09T06:08:37.277Z,24.10
2018-06-09T06:11:04.574Z,24.20
2018-06-09T06:13:31.905Z,24.30
2018-06-09T06:15:59.426Z,24.30
2018-06-09T06:18:26.856Z,24.20
2018-06-09T06:20:54.149Z,24.10
2018-06-09T06:23:21.478Z,24.00
2018-06-09T06:25:48.866Z,24.20
2018-06-09T06:28:16.202Z,24.30
2018-06-09T06:30:43.666Z,24.40
2018-06-09T06:35:38.229Z,24.30
2018-06-09T06:38:05.603Z,24.30
2018-06-09T06:40:32.940Z,24.30
2018-06-09T06:43:00.413Z,24.20
2018-06-09T06:45:27.706Z,24.00
2018-06-09T06:47:55.041Z,24.00
2018-06-09T06:52:49.643Z,24.30
2018-06-09T06:55:16.989Z,24.40
2018-06-09T06:57:44.339Z,24.60
2018-06-09T07:00:11.741Z,24.60
2018-06-09T07:02:39.282Z,24.90
2018-06-09T07:05:06.651Z,25.10
2018-06-09T07:07:33.976Z,25.20
2018-06-09T07:10:01.327Z,25.40
2018-06-09T07:12:28.675Z,25.60
2018-06-09T07:14:56.038Z,25.80
2018-06-09T07:17:23.545Z,25.90
2018-06-09T07:22:18.081Z,26.30
2018-06-09T07:24:45.399Z,26.40
2018-06-09T07:27:12.711Z,26.50
2018-06-09T07:29:40.017Z,26.60
2018-06-09T07:32:07.410Z,26.70
2018-06-09T07:34:34.822Z,26.70
2018-06-09T07:37:02.176Z,26.70
2018-06-09T07:39:29.523Z,26.80
2018-06-09T07:41:56.972Z,26.40
2018-06-09T07:44:24.313Z,26.00
2018-06-09T07:46:51.624Z,25.70
2018-06-09T07:49:18.944Z,25.70
2018-06-09T07:51:46.241Z,25.90
2018-06-09T07:54:13.643Z,25.90
2018-06-09T07:56:40.955Z,25.80
2018-06-09T07:59:08.339Z,25.70
2018-06-09T08:01:35.712Z,26.00
2018-06-09T08:04:03.095Z,26.10
2018-06-09T08:06:30.418Z,25.70
2018-06-09T08:08:57.768Z,25.70
2018-06-09T08:11:25.102Z,25.70
2018-06-09T08:13:52.803Z,25.50
2018-06-09T08:16:20.202Z,25.30
2018-06-09T08:18:47.542Z,25.50
2018-06-09T08:21:14.864Z,25.80
2018-06-09T08:23:42.457Z,26.30
2018-06-09T08:26:09.766Z,26.70
2018-06-09T08:28:37.093Z,27.00
2018-06-09T08:31:04.390Z,27.20
2018-06-09T08:33:31.727Z,27.40
2018-06-09T08:35:59.219Z,27.40
2018-06-09T08:38:26.527Z,27.40
2018-06-09T08:40:53.892Z,27.50
2018-06-09T08:43:21.193Z,27.40
2018-06-09T08:45:48.556Z,27.40
2018-06-09T08:48:15.853Z,27.30
2018-06-09T08:50:43.257Z,27.50
2018-06-09T08:53:10.661Z,27.60
2018-06-09T08:58:05.155Z,27.40
2018-06-09T09:00:32.466Z,27.20
2018-06-09T09:02:59.889Z,27.30
2018-06-09T09:05:27.226Z,27.40
2018-06-09T09:07:54.672Z,27.40
2018-06-09T09:10:21.999Z,27.50
2018-06-09T09:12:49.528Z,27.70
2018-06-09T09:15:16.841Z,27.80
2018-06-09T09:17:44.138Z,27.80
2018-06-09T09:20:11.525Z,27.50
2018-06-09T09:22:38.810Z,27.20
2018-06-09T09:25:06.263Z,27.10
2018-06-09T09:27:33.579Z,27.10
2018-06-09T09:30:00.918Z,27.20
2018-06-09T09:32:28.221Z,27.20
2018-06-09T09:34:55.577Z,27.40
2018-06-09T09:37:22.919Z,27.80
2018-06-09T09:39:50.209Z,28.20
2018-06-09T09:42:17.529Z,28.30
2018-06-09T09:44:44.851Z,28.20
2018-06-09T09:47:12.149Z,27.80
2018-06-09T09:49:39.491Z,27.80
2018-06-09T09:52:06.791Z,28.00
2018-06-09T09:57:01.316Z,28.40
2018-06-09T09:59:28.618Z,28.60
2018-06-09T10:01:55.930Z,28.10
2018-06-09T10:04:23.314Z,27.80
2018-06-09T10:06:50.646Z,27.70
2018-06-09T10:09:18.006Z,27.80
2018-06-09T10:11:45.344Z,28.10
2018-06-09T10:14:12.649Z,28.30
2018-06-09T10:16:39.983Z,28.60
2018-06-09T10:19:07.288Z,28.60
2018-06-09T10:21:34.621Z,28.40
2018-06-09T10:24:01.950Z,28.50
2018-06-09T10:26:29.343Z,28.30
2018-06-09T10:28:56.693Z,28.40
2018-06-09T10:31:24.018Z,28.40
2018-06-09T10:33:51.374Z,28.50
2018-06-09T10:36:18.718Z,28.50
2018-06-09T10:38:46.100Z,28.20
2018-06-09T10:41:13.331Z,28.30
2018-06-09T10:43:41.191Z,28.60
2018-06-09T10:46:08.487Z,29.00
2018-06-09T10:48:35.862Z,29.20
2018-06-09T10:53:30.478Z,29.50
2018-06-09T10:58:25.006Z,29.70
2018-06-09T11:00:52.351Z,29.70
2018-06-09T11:03:19.666Z,29.70
2018-06-09T11:05:47.071Z,29.60
2018-06-09T11:08:14.442Z,29.60
2018-06-09T11:10:41.797Z,29.50
2018-06-09T11:13:09.370Z,29.50
2018-06-09T11:15:36.851Z,29.60
2018-06-09T11:18:04.429Z,29.60
2018-06-09T11:20:31.753Z,29.60
2018-06-09T11:22:59.112Z,29.80
2018-06-09T11:27:53.626Z,29.80
2018-06-09T11:30:21.031Z,29.50
2018-06-09T11:35:15.611Z,30.00
2018-06-09T11:37:42.898Z,30.10
2018-06-09T11:40:10.219Z,30.00
2018-06-09T11:42:37.497Z,30.20
2018-06-09T11:45:05.113Z,30.30
2018-06-09T11:47:32.435Z,30.50
2018-06-09T11:49:59.757Z,30.70
2018-06-09T11:52:27.074Z,30.60
2018-06-09T11:54:54.374Z,30.30
2018-06-09T11:57:21.774Z,30.10
2018-06-09T11:59:49.066Z,30.30
2018-06-09T12:02:16.486Z,30.40
2018-06-09T12:04:43.809Z,30.30
2018-06-09T12:07:11.142Z,30.40
2018-06-09T12:09:38.473Z,30.50
2018-06-09T12:12:05.813Z,30.10
2018-06-09T12:14:33.308Z,30.20
2018-06-09T12:17:00.795Z,30.10
2018-06-09T12:19:28.187Z,30.10
2018-06-09T12:21:55.520Z,30.10
2018-06-09T12:24:22.837Z,30.20
2018-06-09T12:26:50.932Z,30.20
2018-06-09T12:29:18.341Z,30.30
2018-06-09T12:31:45.678Z,30.50
2018-06-09T12:34:13.019Z,30.60
2018-06-09T12:36:40.359Z,30.70
2018-06-09T12:39:07.755Z,30.60
2018-06-09T12:41:35.201Z,30.60
2018-06-09T12:44:02.598Z,30.60
2018-06-09T12:48:57.198Z,30.80
2018-06-09T12:51:24.673Z,30.90
2018-06-09T12:53:51.979Z,30.90
2018-06-09T12:56:19.382Z,31.00
2018-06-09T12:58:46.721Z,31.20
2018-06-09T13:01:14.119Z,31.30
2018-06-09T13:03:41.626Z,31.40
2018-06-09T13:06:09.005Z,31.50
2018-06-09T13:08:36.358Z,31.50
2018-06-09T13:11:03.699Z,31.40
2018-06-09T13:13:31.041Z,31.20
2018-06-09T13:15:58.358Z,31.20
2018-06-09T13:18:25.681Z,31.20
2018-06-09T13:20:53.066Z,31.30
2018-06-09T13:23:20.389Z,31.40
2018-06-09T13:25:47.739Z,31.50
2018-06-09T13:28:15.131Z,31.50
2018-06-09T13:30:42.489Z,31.30
2018-06-09T13:33:09.818Z,31.20
2018-06-09T13:35:37.121Z,31.10
2018-06-09T13:38:04.490Z,31.00
2018-06-09T13:40:31.822Z,31.10
2018-06-09T13:42:59.174Z,31.00
2018-06-09T13:45:26.564Z,30.70
2018-06-09T13:47:53.965Z,30.70
2018-06-09T13:50:21.258Z,30.60
2018-06-09T13:52:48.607Z,30.60
2018-06-09T13:55:15.954Z,30.60
2018-06-09T13:57:43.249Z,30.60
2018-06-09T14:00:10.584Z,30.70
2018-06-09T14:02:37.917Z,30.80
2018-06-09T14:05:05.222Z,31.00
2018-06-09T14:07:32.584Z,31.00
2018-06-09T14:10:00.046Z,31.10
2018-06-09T14:12:27.351Z,31.10
2018-06-09T14:14:54.691Z,31.10
2018-06-09T14:17:22.037Z,31.00
2018-06-09T14:19:49.334Z,30.90
2018-06-09T14:22:16.659Z,30.90
2018-06-09T14:24:43.982Z,30.80
2018-06-09T14:27:11.303Z,30.90
2018-06-09T14:29:38.659Z,31.00
2018-06-09T14:32:06.003Z,31.20
2018-06-09T14:34:33.408Z,31.30
2018-06-09T14:37:00.713Z,31.40
2018-06-09T14:39:28.013Z,31.50
2018-06-09T14:44:22.911Z,31.30
2018-06-09T14:46:50.223Z,31.00
2018-06-09T14:49:17.582Z,30.70
2018-06-09T14:51:44.919Z,30.60
2018-06-09T14:54:12.247Z,30.30
2018-06-09T14:56:39.554Z,29.70
2018-06-09T14:59:06.864Z,29.50
2018-06-09T15:01:34.175Z,29.10
2018-06-09T15:04:01.487Z,29.00
2018-06-09T15:06:28.844Z,29.00
2018-06-09T15:08:56.180Z,28.90
2018-06-09T15:11:23.480Z,29.00
2018-06-09T15:13:50.805Z,29.20
2018-06-09T15:16:18.142Z,29.20
2018-06-09T15:18:45.491Z,28.90
2018-06-09T15:21:12.796Z,28.90
2018-06-09T15:26:07.320Z,28.50
2018-06-09T15:28:34.624Z,28.50
2018-06-09T15:31:02.040Z,28.20
2018-06-09T15:33:29.342Z,28.10
2018-06-09T15:35:56.666Z,28.00
2018-06-09T15:38:23.985Z,28.10
2018-06-09T15:40:51.343Z,28.30
2018-06-09T15:45:45.844Z,28.90
2018-06-09T15:50:40.400Z,29.10
2018-06-09T15:53:07.699Z,29.10
2018-06-09T15:55:35.010Z,28.80
2018-06-09T15:58:02.390Z,28.80
2018-06-09T16:00:29.677Z,29.00
2018-06-09T16:02:57.027Z,29.10
2018-06-09T16:05:24.304Z,29.10
2018-06-09T16:07:51.629Z,29.20
2018-06-09T16:10:18.993Z,29.20
2018-06-09T16:12:46.344Z,29.10
2018-06-09T16:15:13.691Z,28.90
2018-06-09T16:17:41.273Z,28.90
2018-06-09T16:20:08.611Z,29.10
2018-06-09T16:22:35.902Z,29.30
2018-06-09T16:25:03.267Z,29.50
2018-06-09T16:27:30.583Z,29.60
2018-06-09T16:29:57.892Z,29.70
2018-06-09T16:32:25.240Z,29.70
2018-06-09T16:34:52.668Z,29.90
2018-06-09T16:37:20.038Z,30.00
2018-06-09T16:39:47.345Z,30.20
2018-06-09T16:42:14.653Z,30.30
2018-06-09T16:44:41.979Z,30.50
2018-06-09T16:47:09.301Z,30.60
2018-06-09T16:49:36.615Z,30.30
2018-06-09T16:52:03.942Z,30.20
2018-06-09T16:54:31.357Z,29.70
2018-06-09T16:56:58.716Z,29.50
2018-06-09T16:59:26.021Z,29.20
2018-06-09T17:01:53.337Z,29.20
2018-06-09T17:04:21.611Z,28.70
2018-06-09T17:06:49.002Z,28.20
2018-06-09T17:09:16.319Z,28.10
2018-06-09T17:11:43.605Z,27.90
2018-06-09T17:14:10.933Z,27.80
2018-06-09T17:16:38.282Z,27.80
2018-06-09T17:19:05.610Z,27.80
2018-06-09T17:21:32.925Z,27.70
2018-06-09T17:24:00.225Z,27.70
2018-06-09T17:26:27.575Z,27.40
2018-06-09T17:28:54.919Z,27.20
2018-06-09T17:31:22.366Z,27.20
2018-06-09T17:33:49.716Z,27.30
2018-06-09T17:36:17.077Z,27.40
2018-06-09T17:38:44.378Z,27.50
2018-06-09T17:41:11.743Z,27.50
2018-06-09T17:43:39.087Z,27.80
2018-06-09T17:46:06.394Z,27.90
2018-06-09T17:48:33.696Z,27.80
2018-06-09T17:51:01.002Z,27.80
2018-06-09T17:53:28.325Z,27.80
2018-06-09T17:55:55.611Z,27.80
2018-06-09T17:58:22.991Z,27.90
2018-06-09T18:00:50.314Z,27.80
2018-06-09T18:03:17.647Z,27.90
2018-06-09T18:05:44.947Z,27.90
2018-06-09T18:08:12.286Z,28.10
2018-06-09T18:10:39.588Z,28.10
2018-06-09T18:13:06.929Z,28.10
2018-06-09T18:15:34.270Z,28.10
2018-06-09T18:18:01.663Z,28.00
2018-06-09T18:20:28.986Z,27.90
2018-06-09T18:22:56.385Z,27.50
2018-06-09T18:25:23.642Z,27.40
2018-06-09T18:27:50.981Z,27.10
2018-06-09T18:30:18.294Z,27.00
2018-06-09T18:32:45.667Z,27.20
2018-06-09T18:35:12.990Z,27.30
2018-06-09T18:37:40.397Z,27.40
2018-06-09T18:40:07.755Z,27.40
2018-06-09T18:42:35.255Z,27.40
2018-06-09T18:45:02.643Z,27.40
2018-06-09T18:47:29.988Z,27.30
2018-06-09T18:49:57.418Z,27.40
2018-06-09T18:52:24.739Z,27.30
2018-06-09T18:54:52.072Z,27.30
2018-06-09T18:57:19.423Z,27.40
2018-06-09T18:59:46.763Z,27.40
2018-06-09T19:02:14.088Z,27.30
2018-06-09T19:04:41.502Z,27.40
2018-06-09T19:07:08.840Z,27.30
2018-06-09T19:09:36.237Z,27.40
2018-06-09T19:12:03.587Z,27.30
2018-06-09T19:14:30.955Z,27.20
2018-06-09T19:16:58.295Z,27.20
2018-06-09T19:19:25.701Z,27.20
2018-06-09T19:21:53.134Z,27.10
2018-06-09T19:24:20.427Z,27.00
2018-06-09T19:26:47.763Z,26.90
2018-06-09T19:29:15.141Z,26.50
2018-06-09T19:31:42.478Z,26.20
2018-06-09T19:34:09.933Z,25.90
2018-06-09T19:36:37.269Z,25.60
2018-06-09T19:39:06.707Z,25.40
2018-06-09T19:41:34.646Z,25.10
2018-06-09T19:44:01.977Z,24.80
2018-06-09T19:46:29.356Z,24.50
2018-06-09T19:48:56.787Z,24.30
2018-06-09T19:51:24.113Z,24.00
2018-06-09T19:53:51.431Z,23.80
2018-06-09T19:56:18.814Z,23.40
2018-06-09T19:58:46.137Z,23.10
2018-06-09T20:01:13.516Z,22.60
2018-06-09T20:03:40.881Z,22.30
2018-06-09T20:06:08.224Z,22.10
2018-06-09T20:08:35.563Z,22.10
2018-06-09T20:11:02.909Z,22.00
2018-06-09T20:13:30.373Z,22.20
2018-06-09T20:15:57.682Z,22.20
2018-06-09T20:18:25.046Z,22.30
2018-06-09T20:20:52.467Z,22.40
2018-06-09T20:23:19.942Z,22.60
2018-06-09T20:25:47.353Z,22.60
2018-06-09T20:28:14.779Z,22.60
2018-06-09T20:30:42.163Z,22.70
2018-06-09T20:33:09.500Z,22.70
2018-06-09T20:35:36.879Z,22.80
2018-06-09T20:38:04.279Z,22.90
2018-06-09T20:40:31.700Z,22.90
2018-06-09T20:42:59.082Z,23.00
2018-06-09T20:45:26.438Z,23.20
2018-06-09T20:47:53.791Z,23.20
2018-06-09T20:50:21.694Z,23.10
2018-06-09T20:52:49.047Z,22.80
2018-06-09T20:55:16.442Z,22.60
2018-06-09T20:57:43.830Z,22.50
2018-06-09T21:00:11.183Z,22.60
2018-06-09T21:02:38.539Z,22.80
2018-06-09T21:05:05.903Z,22.90
2018-06-09T21:07:33.227Z,22.90
2018-06-09T21:10:00.614Z,22.80
2018-06-09T21:12:27.988Z,22.80
2018-06-09T21:14:55.339Z,22.80
2018-06-09T21:19:49.935Z,22.90
2018-06-09T21:22:17.276Z,23.00
2018-06-09T21:24:44.705Z,23.10
2018-06-09T21:27:12.041Z,22.90
2018-06-09T21:29:40.097Z,22.60
2018-06-09T21:32:07.708Z,22.30
2018-06-09T21:34:46.522Z,22.40
2018-06-09T21:37:13.854Z,22.50
2018-06-09T21:39:45.207Z,22.50
2018-06-09T21:42:12.558Z,22.60
2018-06-09T21:44:39.905Z,22.70
2018-06-09T21:47:07.238Z,22.50
2018-06-09T21:49:34.572Z,22.20
2018-06-09T21:52:01.983Z,22.20
2018-06-09T21:54:29.880Z,22.00
2018-06-09T21:56:57.205Z,21.90
2018-06-09T21:59:24.549Z,21.60
2018-06-09T22:01:51.898Z,21.40
2018-06-09T22:04:20.234Z,21.30
2018-06-09T22:06:47.707Z,21.30
2018-06-09T22:09:15.075Z,21.50
2018-06-09T22:11:42.449Z,21.50
2018-06-09T22:14:10.055Z,21.40
2018-06-09T22:16:37.402Z,21.20
2018-06-09T22:19:04.735Z,21.10
2018-06-09T22:21:32.088Z,21.10
2018-06-09T22:23:59.427Z,21.10
2018-06-09T22:26:27.618Z,21.10
2018-06-09T22:28:55.290Z,21.10
2018-06-09T22:31:22.661Z,21.10
2018-06-09T22:33:50.019Z,21.20
2018-06-09T22:36:17.385Z,21.40
2018-06-09T22:38:44.726Z,21.50
2018-06-09T22:41:12.224Z,21.60
2018-06-09T22:43:39.578Z,21.70
2018-06-09T22:46:06.923Z,21.70
2018-06-09T22:48:34.408Z,21.80
2018-06-09T22:51:01.738Z,21.70
2018-06-09T22:53:29.086Z,21.70
2018-06-09T22:55:56.379Z,21.70
2018-06-09T22:58:23.674Z,21.80
2018-06-09T23:00:51.019Z,21.90
2018-06-09T23:03:18.334Z,22.00
2018-06-09T23:05:45.944Z,22.00
2018-06-09T23:08:13.349Z,22.00
2018-06-09T23:10:40.731Z,22.00
2018-06-09T23:13:08.034Z,22.10
2018-06-09T23:15:35.375Z,22.10
2018-06-09T23:18:02.724Z,22.00
2018-06-09T23:20:30.055Z,22.00
2018-06-09T23:22:57.361Z,21.90
2018-06-09T23:25:24.675Z,21.90
2018-06-09T23:27:51.971Z,21.80
2018-06-09T23:30:19.313Z,21.60
2018-06-09T23:32:46.629Z,21.40
2018-06-09T23:35:13.966Z,21.30
2018-06-09T23:37:41.274Z,21.20
2018-06-09T23:40:08.598Z,21.10
2018-06-09T23:42:35.894Z,20.90
2018-06-09T23:45:03.213Z,20.70
2018-06-09T23:47:30.547Z,20.70
2018-06-09T23:49:57.840Z,20.70
2018-06-09T23:52:25.198Z,20.90
2018-06-09T23:54:52.487Z,20.90
2018-06-09T23:57:19.806Z,20.70
2018-06-09T23:59:47.135Z,20.60
